Time;durP1;ratioP1;P1;durP2;ratioP2;P2;SDS_P1;SDS_P2;PMS_P1;PMS_P2;Temp;Humidity;BMP_temperature;BMP_pressure;BME280_temperature;BME280_humidity;BME280_pressure;Samples;Min_cycle;Max_cycle;Signal;HPM_P1;HPM_P2
2022/10/08 00:01:54;;;;;;;;;42.00;36.33;;;;;9.35;100.00;100299.84;6309826;20;3613113;-61
2022/10/08 00:04:24;;;;;;;;;40.67;34.33;;;;;9.30;100.00;100292.97;6276647;20;2854496;-61
2022/10/08 00:06:52;;;;;;;;;42.00;37.00;;;;;9.33;100.00;100291.00;6310186;20;3608573;-61
2022/10/08 00:09:22;;;;;;;;;42.67;36.67;;;;;9.36;100.00;100285.50;6274761;20;3623245;-61
2022/10/08 00:11:51;;;;;;;;;43.00;36.00;;;;;9.27;100.00;100285.06;6311042;20;3612830;-61
2022/10/08 00:14:22;;;;;;;;;35.67;33.67;;;;;9.23;100.00;100278.97;6275871;20;2851398;-61
2022/10/08 00:16:50;;;;;;;;;42.67;37.00;;;;;9.18;100.00;100276.50;6309971;20;3600390;-61
2022/10/08 00:19:20;;;;;;;;;35.00;30.00;;;;;9.11;100.00;100276.84;6273834;20;2864941;-61
2022/10/08 00:21:52;;;;;;;;;34.67;33.67;;;;;9.25;100.00;100277.09;6310097;20;3592974;-61
2022/10/08 00:24:20;;;;;;;;;25.00;23.50;;;;;9.38;100.00;100272.91;6277014;20;2500403;-61
2022/10/08 00:26:51;;;;;;;;;39.67;34.00;;;;;9.15;100.00;100265.06;6279492;20;2858787;-61
2022/10/08 00:29:21;;;;;;;;;38.00;34.67;;;;;8.95;100.00;100264.19;6319069;20;3588895;-61
2022/10/08 00:31:51;;;;;;;;;42.33;36.67;;;;;9.26;100.00;100262.75;6279542;20;2866142;-61
2022/10/08 00:34:22;;;;;;;;;41.33;34.00;;;;;9.20;100.00;100265.72;6316474;20;3601295;-61
2022/10/08 00:36:54;;;;;;;;;37.33;35.00;;;;;9.14;100.00;100258.84;6277668;20;3603455;-61
2022/10/08 00:39:24;;;;;;;;;35.00;31.00;;;;;8.96;100.00;100259.69;6318574;20;3572867;-61
2022/10/08 00:41:55;;;;;;;;;51.33;39.33;;;;;9.18;100.00;100254.22;6316358;20;3618054;-61
2022/10/08 00:44:57;;;;;;;;;20.67;17.67;;;;;9.14;100.00;100245.47;6282693;20;3552447;-61
2022/10/08 00:47:32;;;;;;;;;45.00;38.00;;;;;9.13;100.00;100242.84;6311460;20;2860719;-61
2022/10/08 00:50:34;;;;;;;;;45.67;37.33;;;;;9.15;100.00;100244.50;6285930;20;3616409;-61
2022/10/08 00:53:08;;;;;;;;;42.67;37.00;;;;;9.13;100.00;100242.84;6277318;20;2858723;-61
2022/10/08 00:55:40;;;;;;;;;49.67;39.00;;;;;9.11;100.00;100242.03;6307911;20;3628365;-61
2022/10/08 00:58:20;;;;;;;;;48.67;40.00;;;;;8.82;100.00;100230.88;6310414;20;3604461;-61
2022/10/08 01:00:49;;;;;;;;;46.00;39.50;;;;;9.01;100.00;100231.75;6310346;20;2838886;-61
2022/10/08 01:03:19;;;;;;;;;48.00;39.33;;;;;8.72;100.00;100235.78;6279458;20;2862926;-61
2022/10/08 01:06:23;;;;;;;;;45.50;39.00;;;;;9.11;100.00;100232.22;6313245;20;2847106;-61
2022/10/08 01:09:28;;;;;;;;;45.67;37.33;;;;;9.13;100.00;100229.44;6284364;20;3620299;-61
2022/10/08 01:12:40;;;;;;;;;43.00;38.00;;;;;9.23;100.00;100230.75;6280653;20;2849393;-61
2022/10/08 01:15:14;;;;;;;;;45.00;37.67;;;;;8.81;100.00;100220.22;6282746;20;3604552;-61
2022/10/08 01:18:12;;;;;;;;;53.00;41.00;;;;;8.83;100.00;100219.22;6278535;20;2862784;-61
2022/10/08 01:21:00;;;;;;;;;44.33;37.33;;;;;8.96;100.00;100222.22;6312645;20;2865487;-61
2022/10/08 01:24:07;;;;;;;;;47.00;40.50;;;;;8.70;100.00;100215.38;6315495;20;2854436;-61
2022/10/08 01:27:17;;;;;;;;;51.67;40.33;;;;;8.77;100.00;100216.84;6275778;20;2856604;-61
2022/10/08 01:29:50;;;;;;;;;54.00;39.33;;;;;8.61;100.00;100221.13;6310058;20;3618003;-61
2022/10/08 01:32:28;;;;;;;;;49.00;41.00;;;;;8.69;100.00;100210.94;6308869;20;2880485;-61
2022/10/08 01:35:20;;;;;;;;;49.33;39.33;;;;;8.69;100.00;100197.56;6313477;20;2858862;-61
2022/10/08 01:37:54;;;;;;;;;49.00;40.00;;;;;8.78;100.00;100207.84;6309967;20;2849382;-61
2022/10/08 01:40:34;;;;;;;;;58.00;44.00;;;;;8.68;100.00;100204.72;6279929;20;3618102;-61
2022/10/08 01:43:08;;;;;;;;;53.00;42.00;;;;;8.46;100.00;100201.28;6310083;20;2859864;-61
2022/10/08 01:45:50;;;;;;;;;57.33;45.00;;;;;8.74;100.00;100208.91;6271615;20;3633679;-61
2022/10/08 01:48:34;;;;;;;;;56.33;45.33;;;;;8.61;100.00;100205.06;6308040;20;2854503;-61
2022/10/08 01:51:31;;;;;;;;;56.67;45.00;;;;;8.70;100.00;100201.97;6310432;20;2863898;-61
2022/10/08 01:54:08;;;;;;;;;55.67;43.33;;;;;8.62;100.00;100196.97;6310629;20;3608700;-61
2022/10/08 01:56:41;;;;;;;;;53.33;41.00;;;;;8.52;100.00;100191.16;6308049;20;3631511;-61
2022/10/08 01:59:23;;;;;;;;;60.00;44.33;;;;;8.59;100.00;100196.25;6313672;20;3644149;-61
2022/10/08 02:02:09;;;;;;;;;56.00;46.00;;;;;8.26;100.00;100194.09;6303979;20;2866045;-60
2022/10/08 02:04:37;;;;;;;;;63.00;48.50;;;;;8.12;100.00;100192.03;6312406;20;2862751;-61
2022/10/08 02:07:15;;;;;;;;;57.00;46.00;;;;;7.85;100.00;100186.94;6280615;20;2861851;-61
2022/10/08 02:09:51;;;;;;;;;62.67;46.33;;;;;7.96;100.00;100191.81;6311006;20;3631506;-61
2022/10/08 02:12:24;;;;;;;;;68.00;46.67;;;;;8.02;100.00;100180.84;6313805;20;3636755;-61
2022/10/08 02:14:56;;;;;;;;;64.67;48.33;;;;;8.01;100.00;100183.63;6313087;20;3639954;-61
2022/10/08 02:18:10;;;;;;;;;52.00;43.50;;;;;8.32;100.00;100188.47;6310854;20;2877471;-61
2022/10/08 02:20:55;;;;;;;;;62.00;48.67;;;;;8.17;100.00;100190.03;6280688;20;2877469;-61
2022/10/08 02:24:20;;;;;;;;;61.00;47.00;;;;;8.12;100.00;100178.66;6311450;20;3625257;-61
2022/10/08 02:26:58;;;;;;;;;58.00;45.67;;;;;8.38;100.00;100172.16;6307231;20;3633602;-61
2022/10/08 02:29:48;;;;;;;;;56.50;46.00;;;;;8.32;100.00;100172.41;6309384;20;2854453;-61
2022/10/08 02:32:31;;;;;;;;;63.00;48.33;;;;;8.24;100.00;100179.91;6275806;20;2875967;-61
2022/10/08 02:35:24;;;;;;;;;64.33;49.67;;;;;8.08;100.00;100180.59;6310822;20;3631657;-60
2022/10/08 02:38:12;;;;;;;;;54.00;44.00;;;;;7.91;100.00;100175.97;6310045;20;2862800;-61
2022/10/08 02:40:49;;;;;;;;;55.00;42.00;;;;;7.78;100.00;100173.88;6279210;20;2859690;-60
2022/10/08 02:43:28;;;;;;;;;56.00;45.00;;;;;8.09;100.00;100171.63;6275264;20;2856526;-61
2022/10/08 02:46:20;;;;;;;;;56.67;40.67;;;;;8.25;100.00;100162.94;6275053;20;3636734;-61
2022/10/08 02:49:24;;;;;;;;;61.33;48.00;;;;;8.36;100.00;100168.69;6307983;20;2869158;-60
2022/10/08 02:51:54;;;;;;;;;51.00;43.00;;;;;8.28;100.00;100168.16;6308920;20;2853496;-61
2022/10/08 02:54:24;;;;;;;;;60.00;45.00;;;;;8.28;100.00;100173.50;6279556;20;3632599;-61
2022/10/08 02:57:02;;;;;;;;;56.67;44.67;;;;;8.42;100.00;100181.81;6306290;20;2855908;-61
2022/10/08 02:59:37;;;;;;;;;57.00;46.00;;;;;8.56;100.00;100176.72;6310878;20;2863807;-60
2022/10/08 03:02:06;;;;;;;;;62.67;50.00;;;;;8.34;100.00;100181.25;6276834;20;3629415;-60
2022/10/08 03:04:53;;;;;;;;;56.33;45.67;;;;;8.20;100.00;100181.00;6307556;20;2859660;-60
2022/10/08 03:07:25;;;;;;;;;59.00;48.67;;;;;8.33;100.00;100174.16;6308458;20;2867497;-60
2022/10/08 03:09:56;;;;;;;;;75.67;58.00;;;;;8.18;100.00;100180.19;6310661;20;3632627;-61
2022/10/08 03:12:26;;;;;;;;;73.00;58.00;;;;;8.31;100.00;100176.91;6307008;20;3613958;-61
2022/10/08 03:14:55;;;;;;;;;76.00;59.00;;;;;8.26;100.00;100180.72;6313283;20;3620036;-61
2022/10/08 03:17:33;;;;;;;;;64.33;49.67;;;;;8.19;100.00;100181.91;6308377;20;3637748;-61
2022/10/08 03:20:05;;;;;;;;;60.00;45.00;;;;;8.05;100.00;100175.38;6308610;20;2602538;-60
2022/10/08 03:22:34;;;;;;;;;44.50;37.50;;;;;7.94;100.00;100177.63;6303086;20;2861104;-61
2022/10/08 03:25:05;;;;;;;;;53.33;40.33;;;;;7.87;100.00;100170.81;6275809;20;2873391;-61
2022/10/08 03:27:34;;;;;;;;;58.00;47.33;;;;;7.78;100.00;100169.41;6308573;20;2865271;-61
2022/10/08 03:30:05;;;;;;;;;89.00;85.67;;;;;7.90;100.00;100176.91;6311382;20;3646137;-61
2022/10/08 03:32:35;;;;;;;;;104.00;99.00;;;;;7.89;100.00;100180.50;6272938;20;3662739;-60
2022/10/08 03:35:05;;;;;;;;;106.00;96.33;;;;;7.98;100.00;100179.25;6274866;20;3687757;-61
2022/10/08 03:37:34;;;;;;;;;103.00;96.33;;;;;7.74;100.00;100182.97;6279141;20;3670047;-61
2022/10/08 03:40:05;;;;;;;;;90.00;81.33;;;;;7.79;100.00;100175.63;6272555;20;3666958;-61
2022/10/08 03:42:34;;;;;;;;;67.00;51.00;;;;;7.52;100.00;100174.97;6272815;20;3518184;-62
2022/10/08 03:45:05;;;;;;;;;74.67;59.00;;;;;7.57;100.00;100171.16;6308529;20;3626317;-61
2022/10/08 03:47:34;;;;;;;;;61.00;49.00;;;;;7.45;100.00;100171.66;6310420;20;3603370;-61
2022/10/08 03:50:04;;;;;;;;;58.50;44.50;;;;;7.53;100.00;100174.03;6309528;20;2851452;-61
2022/10/08 03:52:34;;;;;;;;;59.67;47.67;;;;;7.41;100.00;100167.41;6279296;20;2865058;-61
2022/10/08 03:55:04;;;;;;;;;69.33;53.33;;;;;7.52;100.00;100167.81;6308841;20;3627334;-60
2022/10/08 03:57:33;;;;;;;;;61.00;50.00;;;;;7.63;100.00;100168.22;6309437;20;2858756;-61
2022/10/08 04:00:03;;;;;;;;;60.67;49.00;;;;;7.51;100.00;100163.41;6278564;20;2869108;-61
2022/10/08 04:02:32;;;;;;;;;33.00;28.67;;;;;7.79;100.00;100173.81;6314059;20;3589867;-60
2022/10/08 04:05:01;;;;;;;;;59.00;46.00;;;;;7.86;100.00;100161.06;6281311;20;2870171;-60
2022/10/08 04:07:30;;;;;;;;;57.00;45.00;;;;;7.55;100.00;100164.16;6284610;20;2854473;-61
2022/10/08 04:09:58;;;;;;;;;46.00;37.00;;;;;7.70;100.00;100160.84;6280239;20;2870052;-60
2022/10/08 04:12:28;;;;;;;;;55.00;44.67;;;;;7.76;100.00;100157.03;6279960;20;2864920;-61
2022/10/08 04:14:57;;;;;;;;;58.00;44.50;;;;;7.85;100.00;100167.34;6313983;20;2856756;-60
2022/10/08 04:17:26;;;;;;;;;53.00;43.67;;;;;8.01;100.00;100157.72;6282009;20;2865922;-60
2022/10/08 04:19:56;;;;;;;;;53.50;44.00;;;;;7.63;100.00;100154.00;6313278;20;2858597;-61
2022/10/08 04:22:25;;;;;;;;;58.67;46.67;;;;;7.63;100.00;100157.53;6281452;20;2872661;-60
2022/10/08 04:24:54;;;;;;;;;60.33;45.67;;;;;7.57;100.00;100157.81;6314171;20;3623221;-60
2022/10/08 04:27:24;;;;;;;;;54.33;45.00;;;;;7.67;100.00;100155.63;6312525;20;2863912;-60
2022/10/08 04:29:53;;;;;;;;;58.00;46.67;;;;;7.62;100.00;100166.50;6314014;20;2876417;-60
2022/10/08 04:32:23;;;;;;;;;86.67;67.00;;;;;7.42;100.00;100153.09;6313782;20;3658716;-60
2022/10/08 04:34:52;;;;;;;;;77.33;58.33;;;;;7.68;100.00;100163.56;6282580;20;3636777;-60
2022/10/08 04:37:22;;;;;;;;;67.67;52.33;;;;;7.52;100.00;100154.47;6308330;20;3629460;-60
2022/10/08 04:39:52;;;;;;;;;55.00;45.67;;;;;7.63;100.00;100157.53;6310179;20;2853448;-60
2022/10/08 04:42:21;;;;;;;;;61.00;47.00;;;;;7.82;100.00;100157.66;6313207;20;2868089;-60
2022/10/08 04:44:51;;;;;;;;;61.67;50.33;;;;;7.44;100.00;100161.94;6315714;20;2866019;-61
2022/10/08 04:47:20;;;;;;;;;68.33;51.00;;;;;7.66;100.00;100156.53;6309880;20;3627821;-61
2022/10/08 04:49:50;;;;;;;;;60.67;49.33;;;;;7.58;100.00;100156.91;6314910;20;2873474;-60
2022/10/08 04:52:19;;;;;;;;;67.00;50.00;;;;;7.66;100.00;100159.22;6313159;20;3639829;-60
2022/10/08 04:54:49;;;;;;;;;62.67;50.67;;;;;7.65;100.00;100155.69;6314420;20;3624215;-61
2022/10/08 04:57:18;;;;;;;;;65.33;51.00;;;;;7.74;100.00;100157.13;6305075;20;3636819;-61
2022/10/08 04:59:47;;;;;;;;;78.33;58.00;;;;;7.82;100.00;100167.47;6319212;20;3623175;-60
2022/10/08 05:02:36;;;;;;;;;78.00;59.33;;;;;7.58;100.00;100159.56;6280170;20;3633590;-61
2022/10/08 05:05:07;;;;;;;;;72.33;55.33;;;;;7.75;100.00;100161.53;6312992;20;3640333;-61
2022/10/08 05:07:36;;;;;;;;;71.67;55.00;;;;;7.52;100.00;100164.28;6312052;20;3640882;-60
2022/10/08 05:10:06;;;;;;;;;59.50;49.00;;;;;7.64;100.00;100159.31;6312140;20;2851460;-61
2022/10/08 05:12:35;;;;;;;;;59.00;46.00;;;;;7.60;100.00;100157.69;6278524;20;2872615;-61
2022/10/08 05:15:06;;;;;;;;;61.00;47.33;;;;;7.94;100.00;100163.41;6311882;20;2868018;-61
2022/10/08 05:17:34;;;;;;;;;56.00;46.00;;;;;7.86;100.00;100159.25;6309733;20;2453448;-60
2022/10/08 05:20:04;;;;;;;;;57.00;47.00;;;;;7.99;100.00;100167.63;6282852;20;2862812;-60
2022/10/08 05:22:33;;;;;;;;;66.00;50.50;;;;;7.91;100.00;100170.63;6281382;20;2870243;-61
2022/10/08 05:25:02;;;;;;;;;74.33;56.33;;;;;7.78;100.00;100168.53;6281647;20;3612830;-61
2022/10/08 05:27:33;;;;;;;;;71.33;56.00;;;;;7.95;100.00;100163.31;6311038;20;3633625;-61
2022/10/08 05:30:04;;;;;;;;;69.00;54.33;;;;;7.91;100.00;100164.41;6314199;20;3631530;-60
2022/10/08 05:32:32;;;;;;;;;57.00;47.00;;;;;7.81;100.00;100166.59;6311835;20;2730557;-60
2022/10/08 05:35:01;;;;;;;;;57.00;46.00;;;;;7.98;100.00;100179.25;6313039;20;2863854;-60
2022/10/08 05:37:32;;;;;;;;;64.67;49.00;;;;;8.08;100.00;100177.94;6279454;20;3633590;-60
2022/10/08 05:40:01;;;;;;;;;59.67;47.33;;;;;7.99;100.00;100180.13;6309791;20;2868027;-60
2022/10/08 05:42:31;;;;;;;;;63.00;49.00;;;;;8.01;100.00;100179.13;6310307;20;3633585;-61
2022/10/08 05:45:00;;;;;;;;;66.67;51.00;;;;;8.07;100.00;100183.34;6310623;20;3629587;-61
2022/10/08 05:47:30;;;;;;;;;62.33;49.00;;;;;8.07;100.00;100181.53;6309056;20;3625268;-61
2022/10/08 05:49:59;;;;;;;;;60.00;45.67;;;;;8.32;100.00;100188.47;6312232;20;2867051;-60
2022/10/08 05:52:29;;;;;;;;;61.67;47.33;;;;;8.16;100.00;100187.41;6307365;20;3617968;-61
2022/10/08 05:54:59;;;;;;;;;58.67;49.00;;;;;8.45;100.00;100194.19;6313262;20;2870398;-60
2022/10/08 05:57:28;;;;;;;;;62.00;49.00;;;;;8.66;100.00;100187.00;6305854;20;3624295;-55
2022/10/08 05:59:58;;;;;;;;;63.33;50.33;;;;;8.66;100.00;100195.91;6312221;20;2860846;-53
2022/10/08 06:02:27;;;;;;;;;67.00;49.67;;;;;8.56;100.00;100197.25;6310288;20;3654441;-59
2022/10/08 06:04:57;;;;;;;;;61.00;49.00;;;;;8.86;100.00;100203.00;6274657;20;2878643;-57
2022/10/08 06:07:26;;;;;;;;;56.67;47.00;;;;;9.12;100.00;100204.47;6312261;20;2864986;-59
2022/10/08 06:09:56;;;;;;;;;53.00;43.33;;;;;9.37;100.00;100201.50;6312501;20;2857164;-53
2022/10/08 06:12:24;;;;;;;;;57.00;45.67;;;;;9.59;100.00;100211.19;6312940;20;2866993;-61
2022/10/08 06:14:54;;;;;;;;;58.33;47.33;;;;;9.57;100.00;100213.06;6311125;20;3609695;-60
2022/10/08 06:17:23;;;;;;;;;54.00;44.00;;;;;9.96;100.00;100204.84;6311241;20;2850276;-58
2022/10/08 06:19:51;;;;;;;;;52.50;44.00;;;;;9.74;100.00;100212.22;6279904;20;2854431;-59
2022/10/08 06:22:21;;;;;;;;;57.33;47.33;;;;;9.85;100.00;100212.56;6279910;20;3622172;-61
2022/10/08 06:24:49;;;;;;;;;54.00;44.00;;;;;9.92;100.00;100218.47;6310218;20;2855509;-61
2022/10/08 06:27:19;;;;;;;;;63.00;49.67;;;;;10.16;100.00;100217.22;6272952;20;3629441;-61
2022/10/08 06:29:47;;;;;;;;;58.00;47.00;;;;;10.33;100.00;100214.56;6307714;20;2854899;-60
2022/10/08 06:32:17;;;;;;;;;50.67;41.33;;;;;10.58;100.00;100217.78;6272495;20;2859811;-61
2022/10/08 06:34:46;;;;;;;;;51.33;38.67;;;;;10.86;100.00;100206.44;6307231;20;3617971;-55
2022/10/08 06:37:15;;;;;;;;;52.33;43.00;;;;;10.66;100.00;100210.19;6307072;20;3596260;-53
2022/10/08 06:39:44;;;;;;;;;50.50;42.00;;;;;10.79;100.00;100211.25;6277751;20;2858652;-50
2022/10/08 06:42:17;;;;;;;;;52.67;43.00;;;;;11.24;100.00;100209.69;6277208;20;2856646;-51
2022/10/08 06:44:46;;;;;;;;;46.00;39.33;;;;;13.69;93.97;100220.88;6310101;20;3609774;-54
2022/10/08 06:47:14;;;;;;;;;48.00;40.00;;;;;14.99;84.09;100229.16;6270984;20;2860859;-55
2022/10/08 06:49:44;;;;;;;;;45.67;38.00;;;;;15.31;80.63;100222.28;6280171;20;3601322;-53
2022/10/08 06:52:12;;;;;;;;;47.00;37.00;;;;;15.25;80.81;100233.56;6311836;20;3491987;-53
2022/10/08 06:54:42;;;;;;;;;41.67;36.00;;;;;15.30;79.83;100235.94;6309547;20;2851330;-49
2022/10/08 06:57:11;;;;;;;;;42.00;35.00;;;;;13.41;89.75;100232.59;6312586;20;3598165;-52
2022/10/08 06:59:39;;;;;;;;;49.67;41.00;;;;;12.74;93.69;100230.50;6284159;20;3589841;-50
2022/10/08 07:02:10;;;;;;;;;47.00;39.00;;;;;12.80;95.71;100229.25;6276053;20;2837752;-51
2022/10/08 07:04:40;;;;;;;;;50.33;40.00;;;;;12.92;96.98;100235.69;6276565;20;2849341;-50
2022/10/08 07:07:08;;;;;;;;;46.67;38.33;;;;;12.66;97.59;100237.28;6306785;20;3599199;-50
2022/10/08 07:09:37;;;;;;;;;51.33;41.33;;;;;12.90;96.72;100238.50;6281419;20;3600357;-49
2022/10/08 07:12:06;;;;;;;;;45.33;37.67;;;;;12.72;97.79;100235.09;6306331;20;3599219;-51
2022/10/08 07:14:35;;;;;;;;;48.00;41.00;;;;;12.90;97.87;100235.78;6279492;20;2842166;-50
2022/10/08 07:17:04;;;;;;;;;45.00;38.33;;;;;13.31;96.77;100223.38;6275539;20;2867098;-52
2022/10/08 07:19:33;;;;;;;;;52.33;40.33;;;;;13.22;98.00;100226.59;6310673;20;3611782;-50
2022/10/08 07:22:01;;;;;;;;;47.50;41.00;;;;;13.38;96.93;100227.41;6280876;20;2848326;-50
2022/10/08 07:24:30;;;;;;;;;45.50;39.00;;;;;13.64;96.39;100236.50;6281200;20;2842052;-51
2022/10/08 07:27:00;;;;;;;;;47.33;38.67;;;;;13.88;96.32;100234.03;6278379;20;2859648;-51
2022/10/08 07:29:28;;;;;;;;;42.67;38.00;;;;;13.86;96.47;100235.09;6315314;20;3610790;-53
2022/10/08 07:31:58;;;;;;;;;47.00;39.67;;;;;13.77;96.19;100237.44;6280209;20;3596468;-52
2022/10/08 07:34:28;;;;;;;;;50.00;41.00;;;;;13.87;95.05;100234.97;6311904;20;3599246;-54
2022/10/08 07:36:57;;;;;;;;;51.00;39.00;;;;;13.97;95.91;100233.38;6312741;20;3599211;-55
2022/10/08 07:39:26;;;;;;;;;48.50;41.00;;;;;14.37;95.73;100230.69;6282782;20;2836778;-54
2022/10/08 07:41:55;;;;;;;;;48.00;38.00;;;;;14.41;94.37;100224.13;6280008;20;2846138;-54
2022/10/08 07:44:23;;;;;;;;;47.67;40.00;;;;;14.52;94.62;100228.78;6282185;20;3595071;-55
2022/10/08 07:46:52;;;;;;;;;46.50;39.50;;;;;14.36;95.36;100233.50;6279891;20;2850368;-54
2022/10/08 07:49:22;;;;;;;;;45.33;38.00;;;;;14.78;94.60;100240.50;6281524;20;2861801;-53
2022/10/08 07:51:50;;;;;;;;;50.67;39.33;;;;;15.10;93.33;100240.06;6315334;20;3584629;-52
2022/10/08 07:54:20;;;;;;;;;47.50;39.50;;;;;15.12;93.37;100233.56;6271613;20;2839956;-51
2022/10/08 07:56:49;;;;;;;;;43.00;36.33;;;;;15.00;93.55;100233.56;6281400;20;3585702;-50
2022/10/08 07:59:17;;;;;;;;;45.00;39.00;;;;;15.12;93.38;100233.56;6281751;20;2840900;-51
2022/10/08 08:01:47;;;;;;;;;47.00;39.33;;;;;15.35;93.86;100233.75;6281531;20;2851546;-52
2022/10/08 08:04:15;;;;;;;;;45.67;39.00;;;;;15.97;91.01;100224.69;6314058;20;3594099;-50
2022/10/08 08:06:47;;;;;;;;;47.50;38.00;;;;;15.64;91.17;100222.59;6276626;20;2843129;-52
2022/10/08 08:09:17;;;;;;;;;45.00;38.00;;;;;15.83;92.20;100223.03;6279000;20;2845106;-50
2022/10/08 08:11:47;;;;;;;;;42.50;36.50;;;;;15.84;90.23;100219.31;6280111;20;2847204;-51
2022/10/08 08:14:17;;;;;;;;;37.00;33.33;;;;;16.49;88.48;100225.25;6284919;20;3612850;-50
2022/10/08 08:16:49;;;;;;;;;46.67;39.67;;;;;16.30;88.50;100226.69;6280033;20;2847152;-51
2022/10/08 08:19:18;;;;;;;;;39.33;35.00;;;;;16.62;88.21;100220.59;6313331;20;3603401;-49
2022/10/08 08:21:46;;;;;;;;;43.33;36.00;;;;;16.37;87.21;100206.22;6284537;20;3606503;-48
2022/10/08 08:24:15;;;;;;;;;44.00;35.67;;;;;16.67;86.88;100218.41;6281595;20;3607581;-48
2022/10/08 08:26:44;;;;;;;;;36.00;33.00;;;;;16.74;86.73;100218.75;6280029;20;3596179;-50
2022/10/08 08:29:18;;;;;;;;;41.33;35.67;;;;;16.63;86.79;100211.47;6280913;20;2850327;-50
2022/10/08 08:31:48;;;;;;;;;42.67;34.00;;;;;16.58;86.64;100213.69;6316808;20;3599235;-52
2022/10/08 08:34:23;;;;;;;;;39.00;34.67;;;;;17.14;84.95;100216.50;6282037;20;3606542;-51
2022/10/08 08:36:53;;;;;;;;;36.33;32.00;;;;;17.18;83.24;100219.81;6311786;20;3608619;-48
2022/10/08 08:39:25;;;;;;;;;37.00;33.67;;;;;17.48;83.44;100213.75;6285048;20;3599209;-51
2022/10/08 08:42:38;;;;;;;;;39.33;32.33;;;;;17.28;83.44;100215.38;6283247;20;3613956;-49
2022/10/08 08:45:31;;;;;;;;;33.00;32.00;;;;;17.63;80.84;100215.19;6279018;20;3601309;-52
2022/10/08 08:48:27;;;;;;;;;37.67;33.00;;;;;17.82;81.19;100211.00;6279366;20;2863977;-48
2022/10/08 08:50:58;;;;;;;;;34.00;33.00;;;;;17.79;80.22;100209.38;6319032;20;3606572;-50
2022/10/08 08:53:27;;;;;;;;;32.67;30.33;;;;;17.60;80.17;100207.31;6287165;20;3600257;-48
2022/10/08 08:56:04;;;;;;;;;34.00;30.67;;;;;17.85;80.84;100210.72;6286335;20;3600335;-49
2022/10/08 08:59:19;;;;;;;;;34.00;31.33;;;;;17.63;79.03;100215.19;6285663;20;3597141;-52
2022/10/08 09:01:53;;;;;;;;;37.33;32.00;;;;;17.61;80.09;100214.44;6283807;20;3603388;-50
2022/10/08 09:04:49;;;;;;;;;32.67;30.33;;;;;17.77;80.07;100222.19;6285864;20;3588910;-48
2022/10/08 09:07:25;;;;;;;;;30.67;29.67;;;;;17.68;78.30;100210.25;6280584;20;3583597;-51
2022/10/08 09:09:58;;;;;;;;;35.00;31.33;;;;;17.84;81.19;100214.44;6285518;20;2854598;-48
2022/10/08 09:12:38;;;;;;;;;34.67;30.00;;;;;17.82;79.19;100216.41;6318005;20;3598217;-55
2022/10/08 09:15:32;;;;;;;;;41.33;34.33;;;;;18.00;77.67;100209.44;6284464;20;3606548;-55
2022/10/08 09:18:04;;;;;;;;;39.67;33.00;;;;;17.81;77.58;100209.28;6281730;20;3613825;-52
2022/10/08 09:20:34;;;;;;;;;35.33;32.33;;;;;18.11;78.31;100206.66;6320132;20;3605859;-60
2022/10/08 09:23:20;;;;;;;;;31.33;30.33;;;;;18.32;78.23;100209.41;6280758;20;3598179;-61
2022/10/08 09:26:09;;;;;;;;;38.00;34.00;;;;;18.03;77.61;100205.59;6283877;20;3618105;-60
2022/10/08 09:28:57;;;;;;;;;32.00;30.00;;;;;18.33;75.63;100204.88;6284831;20;3604411;-60
2022/10/08 09:31:46;;;;;;;;;32.67;30.67;;;;;18.35;77.77;100211.00;6315448;20;3590905;-60
2022/10/08 09:34:17;;;;;;;;;33.33;31.00;;;;;18.17;77.60;100206.16;6280024;20;3597307;-50
2022/10/08 09:37:02;;;;;;;;;33.00;29.67;;;;;18.33;77.18;100207.59;6281262;20;3581647;-49
2022/10/08 09:39:36;;;;;;;;;33.00;32.00;;;;;18.77;75.42;100202.88;6281387;20;3599224;-48
2022/10/08 09:42:16;;;;;;;;;40.25;33.25;;;;;18.72;74.88;100195.13;6317553;20;3609662;-48
2022/10/08 09:44:57;;;;;;;;;31.67;29.00;;;;;18.87;75.19;100201.06;6315758;20;3597186;-52
2022/10/08 09:47:29;;;;;;;;;35.67;31.00;;;;;18.46;75.63;100193.78;6283036;20;3596242;-48
2022/10/08 09:50:18;;;;;;;;;36.67;32.67;;;;;18.58;74.76;100190.00;6286843;20;3606554;-48
2022/10/08 09:52:50;;;;;;;;;33.00;32.00;;;;;18.64;76.11;100182.19;6281226;20;3593998;-49
2022/10/08 09:55:28;;;;;;;;;32.33;29.67;;;;;18.57;75.05;100186.41;6314379;20;3582552;-50
2022/10/08 09:57:59;;;;;;;;;33.67;30.33;;;;;19.04;74.40;100181.41;6285031;20;3588827;-51
2022/10/08 10:00:36;;;;;;;;;26.33;25.33;;;;;19.28;72.59;100180.22;6280015;20;3584782;-50
2022/10/08 10:03:15;;;;;;;;;30.33;29.00;;;;;19.32;72.55;100178.91;6313234;20;3589965;-49
2022/10/08 10:05:54;;;;;;;;;25.00;25.00;;;;;19.38;73.04;100181.09;6283658;20;3577421;-51
2022/10/08 10:08:55;;;;;;;;;30.00;28.00;;;;;18.96;74.03;100181.22;6285839;20;3583601;-50
2022/10/08 10:11:48;;;;;;;;;31.00;29.00;;;;;19.22;73.62;100175.28;6285856;20;3585689;-52
2022/10/08 10:14:32;;;;;;;;;31.00;28.67;;;;;19.72;72.42;100172.59;6284476;20;3579453;-51
2022/10/08 10:17:46;;;;;;;;;31.67;29.00;;;;;19.17;73.91;100172.13;6284585;20;3589827;-50
2022/10/08 10:20:41;;;;;;;;;29.00;27.67;;;;;19.38;71.85;100175.66;6280550;20;3612886;-50
2022/10/08 10:23:42;;;;;;;;;32.33;25.67;;;;;19.38;71.39;100172.06;6279490;20;3603403;-56
2022/10/08 10:26:26;;;;;;;;;31.67;29.67;;;;;19.55;71.42;100167.81;6280861;20;3587860;-56
2022/10/08 10:29:09;;;;;;;;;31.67;30.67;;;;;19.16;70.36;100156.81;6284874;20;3582571;-55
2022/10/08 10:32:07;;;;;;;;;24.33;23.67;;;;;19.12;72.66;100155.38;6284178;20;3589916;-56
2022/10/08 10:34:39;;;;;;;;;26.00;25.33;;;;;19.16;73.46;100140.47;6282110;20;3591958;-55
2022/10/08 10:37:19;;;;;;;;;25.33;25.00;;;;;19.71;70.57;100140.91;6280097;20;3586739;-57
2022/10/08 10:40:28;;;;;;;;;33.00;28.33;;;;;19.74;69.76;100137.88;6282483;20;3601537;-55
2022/10/08 10:43:38;;;;;;;;;27.67;26.00;;;;;19.43;70.52;100129.81;6280478;20;3587786;-55
2022/10/08 10:46:41;;;;;;;;;32.00;30.67;;;;;19.91;69.96;100129.00;6281126;20;3594091;-56
2022/10/08 10:49:25;;;;;;;;;33.33;31.33;;;;;19.85;69.46;100131.44;6284022;20;3588822;-57
2022/10/08 10:52:18;;;;;;;;;24.33;23.00;;;;;19.81;70.44;100128.16;6279235;20;3587910;-55
2022/10/08 10:55:23;;;;;;;;;29.00;29.00;;;;;19.58;70.81;100121.22;6285757;20;3583578;-57
2022/10/08 10:58:21;;;;;;;;;32.33;27.33;;;;;20.00;71.24;100121.81;6281237;20;3599375;-53
2022/10/08 11:01:35;;;;;;;;;34.00;30.00;;;;;20.08;68.97;100118.38;6281908;20;3596101;-55
2022/10/08 11:04:59;;;;;;;;;29.00;26.33;;;;;19.84;69.59;100113.38;6284122;20;3580494;-55
2022/10/08 11:08:49;;;;;;;;;26.67;24.67;;;;;19.86;67.70;100106.78;6281156;20;3597243;-53
2022/10/08 11:11:37;;;;;;;;;29.00;29.00;;;;;19.86;69.73;100104.06;6277239;20;3575337;-59
2022/10/08 11:15:01;;;;;;;;;26.67;25.67;;;;;20.01;68.96;100101.75;6282094;20;3604564;-59
2022/10/08 11:18:14;;;;;;;;;28.33;25.33;;;;;19.65;69.37;100092.41;6280820;20;3591945;-60
2022/10/08 11:21:33;;;;;;;;;30.33;27.67;;;;;19.81;69.24;100087.28;6276081;20;3583616;-59
2022/10/08 11:24:50;;;;;;;;;26.00;22.33;;;;;20.06;68.41;100093.97;6280382;20;3582568;-60
2022/10/08 11:27:57;;;;;;;;;24.00;24.00;;;;;20.16;68.04;100080.34;6276393;20;3590891;-59
2022/10/08 11:31:22;;;;;;;;;25.33;25.00;;;;;20.11;67.94;100079.91;6282807;20;3588863;-59
2022/10/08 11:33:55;;;;;;;;;21.00;21.00;;;;;20.18;67.06;100076.47;6280894;20;3563882;-60
2022/10/08 11:36:52;;;;;;;;;20.00;19.00;;;;;20.10;67.18;100072.75;6277187;20;3558706;-53
2022/10/08 11:39:42;;;;;;;;;22.00;20.33;;;;;20.38;68.40;100071.81;6278978;20;3581500;-52
2022/10/08 11:42:55;;;;;;;;;24.00;19.00;;;;;20.43;69.08;100065.06;6283281;20;3578369;-51